Time;durP1;ratioP1;P1;durP2;ratioP2;P2;SDS_P1;SDS_P2;PMS_P1;PMS_P2;Temp;Humidity;BMP_temperature;BMP_pressure;BME280_temperature;BME280_humidity;BME280_pressure;Samples;Min_cycle;Max_cycle;Signal;HPM_P1;HPM_P2
2022/05/11 00:00:53;;;;;;;6.17;2.50;;;;;;;16.57;57.15;101149.44;6467109;23;20004;-80
2022/05/11 00:03:25;;;;;;;4.33;2.70;;;;;;;16.57;57.04;101142.38;6467895;23;20036;-81
2022/05/11 00:05:56;;;;;;;10.75;3.15;;;;;;;16.64;56.75;101144.81;6467570;23;20161;-80
2022/05/11 00:08:27;;;;;;;8.03;3.30;;;;;;;16.61;57.21;101150.19;6466295;23;20009;-80
2022/05/11 00:11:00;;;;;;;6.30;2.77;;;;;;;16.58;57.33;101145.88;6464657;23;20083;-80
2022/05/11 00:13:33;;;;;;;9.35;2.92;;;;;;;16.59;57.27;101143.19;6464871;23;20015;-81
2022/05/11 00:16:04;;;;;;;8.35;3.10;;;;;;;16.51;57.50;101136.47;6465715;23;20059;-80
2022/05/11 00:18:36;;;;;;;7.57;2.77;;;;;;;16.53;57.50;101130.22;6465458;23;20016;-80
2022/05/11 00:21:08;;;;;;;9.10;2.97;;;;;;;16.53;57.00;101130.22;6464633;23;20001;-81
2022/05/11 00:23:39;;;;;;;7.78;2.45;;;;;;;16.51;57.20;101123.31;6464623;23;20015;-81
2022/05/11 00:26:11;;;;;;;10.10;2.77;;;;;;;16.51;57.22;101123.31;6464481;23;20005;-80
2022/05/11 00:28:42;;;;;;;7.93;3.30;;;;;;;16.53;57.12;101116.22;6464952;23;20401;-80
2022/05/11 00:31:14;;;;;;;7.73;3.10;;;;;;;16.51;57.12;101123.31;6464196;23;20055;-80
2022/05/11 00:33:45;;;;;;;10.43;3.37;;;;;;;16.53;56.86;101114.44;6462826;23;20096;-80
2022/05/11 00:36:17;;;;;;;8.23;2.97;;;;;;;16.52;56.75;101112.72;6466805;23;20322;-79
2022/05/11 00:38:49;;;;;;;5.67;2.57;;;;;;;16.51;56.38;101107.50;6466183;23;20311;-81
2022/05/11 00:41:20;;;;;;;;;;;;;;;16.55;56.18;101114.38;6439567;23;20005;-82
2022/05/11 00:43:55;;;;;;;10.23;2.80;;;;;;;16.53;56.41;101110.94;6467477;23;19931;-80
2022/05/11 00:46:34;;;;;;;12.15;2.65;;;;;;;16.49;56.38;101110.19;6465190;23;20036;-81
2022/05/11 00:52:23;;;;;;;6.65;2.42;;;;;;;16.47;56.67;101095.34;6464888;23;20012;-82
2022/05/11 00:54:59;;;;;;;;;;;;;;;16.53;56.14;101092.53;6466774;23;20021;-83
2022/05/11 00:57:51;;;;;;;8.68;2.97;;;;;;;16.45;56.33;101089.28;6439293;23;20306;-83
2022/05/11 01:00:24;;;;;;;8.13;2.63;;;;;;;16.46;57.13;101093.66;6466158;23;20323;-81
2022/05/11 01:03:03;;;;;;;8.00;2.63;;;;;;;16.40;56.91;101095.56;6466907;23;20005;-85
2022/05/11 01:05:35;;;;;;;4.85;2.25;;;;;;;16.38;57.23;101091.25;6466295;23;20084;-81
2022/05/11 01:08:07;;;;;;;6.23;2.47;;;;;;;16.39;57.05;101091.22;6466663;23;20035;-82
2022/05/11 01:10:39;;;;;;;;;;;;;;;16.43;56.32;101086.72;6467094;23;20000;-82
2022/05/11 01:13:13;;;;;;;2.60;2.00;;;;;;;16.33;57.24;101080.88;6466781;23;19915;-84
2022/05/11 01:15:49;;;;;;;7.90;2.60;;;;;;;16.40;57.20;101082.41;6466903;23;20055;-84
2022/05/11 01:18:23;;;;;;;7.78;2.58;;;;;;;16.39;57.05;101078.06;6467169;23;20007;-83
2022/05/11 01:20:55;;;;;;;7.35;2.53;;;;;;;16.34;57.22;101065.94;6467150;23;20381;-82
2022/05/11 01:23:32;;;;;;;4.37;2.30;;;;;;;16.37;57.25;101072.00;6466458;23;20036;-81
2022/05/11 01:26:04;;;;;;;8.15;2.78;;;;;;;16.37;57.34;101071.13;6466234;23;20008;-81
2022/05/11 01:28:44;;;;;;;6.18;2.53;;;;;;;16.37;57.46;101063.22;6466375;23;20015;-82
2022/05/11 01:31:17;;;;;;;12.10;2.63;;;;;;;16.35;57.49;101065.06;6466073;23;20013;-79
2022/05/11 01:33:51;;;;;;;4.75;2.08;;;;;;;16.32;57.85;101067.78;6466389;23;20009;-83
2022/05/11 01:36:36;;;;;;;8.60;2.50;;;;;;;16.34;57.67;101073.84;6465965;23;20706;-83
2022/05/11 01:39:09;;;;;;;5.00;2.65;;;;;;;16.31;57.82;101074.81;6466248;23;20453;-83
2022/05/11 01:41:49;;;;;;;4.78;2.15;;;;;;;16.30;58.17;101067.81;6466414;23;20484;-82
2022/05/11 01:44:22;;;;;;;5.65;2.80;;;;;;;16.27;58.04;101067.91;6439976;23;20044;-84
2022/05/11 01:46:58;;;;;;;5.95;2.22;;;;;;;16.26;58.13;101070.59;6466309;23;20016;-83
2022/05/11 01:49:30;;;;;;;7.93;2.80;;;;;;;16.23;58.30;101068.94;6466722;23;20026;-81
2022/05/11 01:52:02;;;;;;;7.45;2.88;;;;;;;16.23;58.19;101066.31;6466919;23;20419;-81
2022/05/11 01:54:34;;;;;;;5.30;2.10;;;;;;;16.22;58.42;101065.44;6464394;23;20028;-82
2022/05/11 01:57:06;;;;;;;6.83;2.50;;;;;;;16.18;58.40;101058.56;6466046;23;20493;-82
2022/05/11 01:59:37;;;;;;;5.43;2.50;;;;;;;16.21;58.54;101053.22;6467947;23;20008;-82
2022/05/11 02:02:09;;;;;;;5.47;2.73;;;;;;;16.18;58.46;101055.94;6467128;23;20031;-81
2022/05/11 02:10:23;;;;;;;6.75;3.17;;;;;;;16.17;58.61;101054.22;6465259;23;20016;-81
2022/05/11 02:12:57;;;;;;;4.47;2.70;;;;;;;16.16;58.53;101051.63;6467328;23;20023;-82
2022/05/11 02:15:28;;;;;;;8.43;2.97;;;;;;;16.15;58.85;101048.13;6443164;23;20009;-80
2022/05/11 02:18:00;;;;;;;5.53;3.00;;;;;;;16.14;58.85;101045.56;6468973;23;20011;-80
2022/05/11 02:20:32;;;;;;;7.17;2.97;;;;;;;16.12;58.93;101050.00;6467722;23;20046;-80
2022/05/11 02:23:03;;;;;;;;;;;;;;;16.17;58.05;101050.72;6467409;23;20013;-79
2022/05/11 02:25:35;;;;;;;10.90;2.88;;;;;;;16.14;59.16;101045.56;6466164;23;19923;-80
2022/05/11 02:28:08;;;;;;;9.30;2.83;;;;;;;16.11;59.08;101053.53;6465925;23;20086;-81
2022/05/11 02:30:43;;;;;;;5.72;2.83;;;;;;;16.10;59.11;101050.06;6440102;23;20036;-81
2022/05/11 02:33:15;;;;;;;10.23;3.15;;;;;;;16.06;59.42;101048.44;6465763;23;20019;-82
2022/05/11 02:35:49;;;;;;;4.07;2.60;;;;;;;16.09;59.24;101047.47;6465300;23;20083;-82
2022/05/11 02:38:27;;;;;;;8.27;3.05;;;;;;;16.04;59.21;101040.59;6439093;23;20015;-81
2022/05/11 02:40:59;;;;;;;9.77;3.15;;;;;;;16.04;59.26;101045.00;6464887;23;20009;-80
2022/05/11 02:43:32;;;;;;;8.88;3.15;;;;;;;16.03;59.67;101036.25;6465978;23;20062;-82
2022/05/11 02:46:03;;;;;;;6.53;2.80;;;;;;;16.03;59.29;101040.63;6466239;23;20004;-80
2022/05/11 02:48:35;;;;;;;12.03;2.43;;;;;;;16.04;59.52;101037.09;6465437;23;20027;-79
2022/05/11 02:51:07;;;;;;;9.93;2.87;;;;;;;16.01;59.42;101045.09;6465918;23;20008;-84
2022/05/11 02:53:38;;;;;;;5.20;2.58;;;;;;;16.01;59.75;101040.69;6465295;23;20020;-81
2022/05/11 02:56:10;;;;;;;4.70;2.30;;;;;;;16.02;59.67;101037.16;6465665;23;20010;-82
2022/05/11 02:58:41;;;;;;;7.07;2.60;;;;;;;15.97;60.04;101031.19;6465434;23;20320;-82
2022/05/11 03:01:14;;;;;;;5.20;2.50;;;;;;;15.99;59.95;101031.97;6465724;23;20046;-81
2022/05/11 03:03:46;;;;;;;7.60;3.13;;;;;;;15.98;59.79;101034.66;6466211;23;20016;-83
2022/05/11 03:06:18;;;;;;;5.32;2.55;;;;;;;15.98;59.93;101038.13;6465149;23;20011;-81
2022/05/11 03:08:50;;;;;;;4.97;2.80;;;;;;;15.95;59.91;101029.50;6438939;23;20008;-81
2022/05/11 03:11:21;;;;;;;10.00;2.63;;;;;;;15.93;60.17;101031.31;6464686;23;20015;-83
2022/05/11 03:13:53;;;;;;;4.80;2.53;;;;;;;15.92;60.24;101022.56;6466846;23;20422;-82
2022/05/11 03:16:24;;;;;;;4.43;2.27;;;;;;;15.89;60.49;101017.41;6466163;23;20005;-82
2022/05/11 03:18:58;;;;;;;6.47;2.63;;;;;;;15.90;60.31;101020.91;6465699;23;20040;-82
2022/05/11 03:21:30;;;;;;;6.35;2.70;;;;;;;15.85;60.31;101013.16;6465053;23;20015;-81
2022/05/11 03:24:01;;;;;;;6.55;3.13;;;;;;;15.83;60.71;101010.56;6464979;23;20009;-82
2022/05/11 03:26:34;;;;;;;6.97;2.53;;;;;;;15.81;60.61;101009.75;6465616;23;20079;-81
2022/05/11 03:29:05;;;;;;;4.72;2.35;;;;;;;15.78;60.78;101007.22;6463779;23;20012;-81
2022/05/11 03:31:39;;;;;;;4.87;2.63;;;;;;;15.74;60.81;100989.78;6465896;23;20509;-81
2022/05/11 03:37:00;;;;;;;6.78;2.42;;;;;;;15.75;60.88;101001.19;6465788;23;20431;-81
2022/05/11 03:39:31;;;;;;;6.00;2.10;;;;;;;15.78;60.74;101006.38;6465258;23;20008;-81
2022/05/11 03:42:05;;;;;;;4.60;2.27;;;;;;;15.75;61.04;101001.19;6467174;23;20054;-82
2022/05/11 03:44:36;;;;;;;12.27;2.45;;;;;;;15.75;60.87;100991.53;6465510;23;20013;-82
2022/05/11 03:47:08;;;;;;;3.07;1.80;;;;;;;15.73;60.79;100995.97;6465181;23;20035;-82
2022/05/11 03:49:39;;;;;;;4.07;2.10;;;;;;;15.66;61.13;100983.91;6468422;23;20418;-81
2022/05/11 03:52:12;;;;;;;5.20;2.00;;;;;;;15.69;61.11;100994.31;6465071;23;20032;-80
2022/05/11 03:54:44;;;;;;;12.02;2.53;;;;;;;15.64;61.16;100983.97;6465243;23;20069;-82
2022/05/11 03:57:16;;;;;;;6.18;2.58;;;;;;;15.64;61.25;100983.09;6464558;23;20084;-81
2022/05/11 03:59:47;;;;;;;9.73;2.83;;;;;;;15.58;61.40;100994.66;6465450;23;20043;-80
2022/05/11 04:02:18;;;;;;;5.77;2.97;;;;;;;15.57;61.42;100986.81;6464911;23;20032;-82
2022/05/11 04:04:50;;;;;;;6.33;2.40;;;;;;;15.55;61.65;100992.13;6465391;23;20015;-82
2022/05/11 04:07:21;;;;;;;10.07;2.47;;;;;;;15.48;61.65;100986.19;6465379;23;20028;-80
2022/05/11 04:09:52;;;;;;;5.00;2.17;;;;;;;15.46;61.62;100987.16;6465053;23;20015;-82
2022/05/11 04:12:26;;;;;;;6.60;2.20;;;;;;;15.41;62.12;100989.06;6464440;23;20032;-81
2022/05/11 04:14:58;;;;;;;4.90;2.60;;;;;;;15.30;62.46;100989.38;6463661;23;20496;-81
2022/05/11 04:17:29;;;;;;;5.13;2.13;;;;;;;15.23;62.72;100982.56;6465369;23;20008;-82
2022/05/11 04:20:02;;;;;;;5.10;2.13;;;;;;;15.19;63.14;100984.44;6466539;23;20330;-82
2022/05/11 04:22:33;;;;;;;7.50;2.15;;;;;;;15.09;63.56;100982.97;6465876;23;20005;-82
2022/05/11 04:25:05;;;;;;;4.63;1.80;;;;;;;15.04;63.66;100980.47;6477414;23;20000;-80
2022/05/11 04:27:37;;;;;;;5.25;2.55;;;;;;;14.98;64.08;100983.28;6489811;23;20013;-81
2022/05/11 04:30:09;;;;;;;7.40;2.80;;;;;;;14.96;64.20;100979.84;6458748;23;20059;-83
2022/05/11 04:32:40;;;;;;;8.13;2.40;;;;;;;14.96;64.18;100982.47;6471913;23;20032;-81
2022/05/11 04:35:12;;;;;;;5.27;2.60;;;;;;;14.92;64.35;100986.94;6470576;23;20000;-81
2022/05/11 04:37:44;;;;;;;6.10;2.80;;;;;;;14.87;64.54;100986.19;6467546;23;20357;-82
2022/05/11 04:40:15;;;;;;;5.28;2.17;;;;;;;14.85;64.76;100984.53;6442240;23;20004;-81
2022/05/11 04:42:47;;;;;;;7.70;2.73;;;;;;;14.84;64.90;100981.00;6467678;23;20015;-82
2022/05/11 04:45:19;;;;;;;5.30;2.40;;;;;;;14.76;65.44;100983.88;6468866;23;20011;-81
2022/05/11 04:47:50;;;;;;;6.23;2.40;;;;;;;14.81;65.25;100986.38;6468423;23;20040;-82
2022/05/11 04:50:21;;;;;;;6.70;2.30;;;;;;;14.76;65.68;100993.50;6468627;23;20267;-82
2022/05/11 04:52:53;;;;;;;6.90;3.00;;;;;;;14.80;65.37;100983.78;6469193;23;20423;-83
2022/05/11 04:55:24;;;;;;;10.20;2.40;;;;;;;14.80;65.68;100986.41;6467569;23;20012;-81
2022/05/11 04:57:56;;;;;;;4.90;2.43;;;;;;;14.81;65.74;100985.50;6467664;23;20016;-85
2022/05/11 05:00:28;;;;;;;6.27;2.97;;;;;;;14.85;66.19;100980.13;6468139;23;20005;-82
2022/05/11 05:03:02;;;;;;;9.07;2.53;;;;;;;14.89;65.99;100988.75;6468625;23;20036;-82
2022/05/11 05:05:33;;;;;;;5.97;2.78;;;;;;;14.94;65.88;100986.88;6470286;23;20434;-83
2022/05/11 05:08:05;;;;;;;6.83;2.30;;;;;;;15.00;65.32;100985.84;6468750;23;20004;-83
2022/05/11 05:10:37;;;;;;;5.85;2.72;;;;;;;15.07;65.22;100985.66;6467486;23;20016;-82
2022/05/11 05:13:11;;;;;;;5.17;2.90;;;;;;;15.08;64.96;100987.34;6468123;23;20008;-83
2022/05/11 05:15:43;;;;;;;4.55;2.28;;;;;;;15.12;65.32;100988.16;6470545;23;20087;-82
2022/05/11 05:18:15;;;;;;;4.67;2.67;;;;;;;15.18;65.27;100990.56;6468190;23;20028;-82
2022/05/11 05:20:46;;;;;;;9.33;2.47;;;;;;;15.18;65.61;100985.31;6467709;23;20009;-81
2022/05/11 05:23:17;;;;;;;5.03;2.60;;;;;;;15.22;64.90;100991.38;6467965;23;20004;-83
2022/05/11 05:25:49;;;;;;;6.10;2.93;;;;;;;15.27;65.07;100992.09;6468012;23;20494;-82
2022/05/11 05:31:11;;;;;;;4.90;2.50;;;;;;;15.32;64.51;100998.91;6472515;23;20442;-84
2022/05/11 05:33:43;;;;;;;10.95;3.90;;;;;;;15.37;64.51;101005.81;6472145;23;20005;-83
2022/05/11 05:36:14;;;;;;;6.30;2.78;;;;;;;15.45;64.08;101011.69;6471705;23;20015;-84
2022/05/11 05:38:45;;;;;;;5.33;2.37;;;;;;;15.46;63.97;101000.28;6474886;23;20015;-82
2022/05/11 05:41:17;;;;;;;7.53;3.40;;;;;;;15.48;64.09;101007.19;6482549;23;20027;-82
2022/05/11 05:43:48;;;;;;;10.03;2.83;;;;;;;15.53;64.02;100998.34;6476869;23;20016;-82
2022/05/11 05:46:20;;;;;;;9.43;2.87;;;;;;;15.54;63.48;100993.03;6469004;23;20036;-84
2022/05/11 05:48:51;;;;;;;6.53;2.75;;;;;;;15.59;63.70;101009.53;6468657;23;20036;-82
2022/05/11 05:51:25;;;;;;;5.90;3.10;;;;;;;15.61;63.63;101006.84;6469557;23;20486;-83
2022/05/11 05:53:57;;;;;;;8.38;3.15;;;;;;;15.67;63.57;101012.78;6468244;23;20054;-84
2022/05/11 05:56:28;;;;;;;5.45;2.60;;;;;;;15.71;63.16;101004.78;6468562;23;20391;-83
2022/05/11 05:59:01;;;;;;;4.67;2.90;;;;;;;15.68;62.83;101011.00;6471586;23;20094;-84
2022/05/11 06:01:33;;;;;;;4.85;2.90;;;;;;;15.71;62.84;101015.31;6478984;23;20004;-84
2022/05/11 06:04:05;;;;;;;7.97;2.90;;;;;;;15.76;62.00;101013.41;6456913;23;20079;-84
2022/05/11 06:06:36;;;;;;;12.35;2.60;;;;;;;15.81;61.93;101019.41;6482679;23;20092;-82
2022/05/11 06:09:09;;;;;;;7.73;2.50;;;;;;;15.79;61.53;101024.72;6484546;23;20008;-83
2022/05/11 06:11:40;;;;;;;8.30;2.70;;;;;;;15.80;61.20;101012.44;6488882;23;20009;-84
2022/05/11 06:14:12;;;;;;;5.93;2.57;;;;;;;15.77;61.26;101017.78;6490075;23;20019;-85
2022/05/11 06:16:43;;;;;;;6.80;2.80;;;;;;;15.79;60.65;101015.97;6490699;23;20117;-86
2022/05/11 06:19:14;;;;;;;3.60;2.23;;;;;;;15.85;60.81;101016.63;6491322;23;20011;-85
2022/05/11 06:21:48;;;;;;;5.73;2.43;;;;;;;15.83;59.83;101007.09;6487453;23;20087;-85
2022/05/11 06:24:19;;;;;;;5.75;2.22;;;;;;;15.94;59.03;101004.97;6474841;23;20004;-83
2022/05/11 06:26:51;;;;;;;8.87;2.57;;;;;;;15.99;58.14;101003.06;6470303;23;20034;-85
2022/05/11 06:29:22;;;;;;;5.73;2.33;;;;;;;16.04;57.59;101006.41;6468463;23;20063;-83
2022/05/11 06:31:54;;;;;;;9.03;2.27;;;;;;;16.10;56.70;101004.47;6469296;23;20046;-84
2022/05/11 06:34:25;;;;;;;8.90;1.87;;;;;;;16.14;57.16;101004.34;6468444;23;20011;-83
2022/05/11 06:36:57;;;;;;;6.13;2.33;;;;;;;16.26;57.21;100994.31;6469990;23;20012;-83
2022/05/11 06:39:30;;;;;;;5.70;2.13;;;;;;;16.41;57.07;100997.31;6474211;23;20238;-84
2022/05/11 06:42:02;;;;;;;9.65;1.98;;;;;;;16.32;56.23;101002.84;6473010;23;20462;-85
2022/05/11 06:44:34;;;;;;;6.68;2.58;;;;;;;16.38;55.99;101009.72;6470523;23;20005;-81
2022/05/11 06:47:09;;;;;;;8.82;2.65;;;;;;;16.39;55.70;100999.13;6470505;23;20028;-86
2022/05/11 06:49:41;;;;;;;5.38;2.28;;;;;;;16.42;56.02;100992.88;6471998;23;20050;-85
2022/05/11 06:52:12;;;;;;;9.23;2.50;;;;;;;16.61;55.99;100989.63;6470850;23;20000;-85
2022/05/11 07:00:40;;;;;;;9.77;2.38;;;;;;;16.92;54.78;100997.34;6468385;23;20016;-84
2022/05/11 07:03:12;;;;;;;5.17;2.00;;;;;;;17.01;54.29;100990.91;6469333;23;20012;-83
2022/05/11 07:05:45;;;;;;;8.27;2.63;;;;;;;16.92;54.50;100998.22;6469262;23;20043;-82
2022/05/11 07:08:16;;;;;;;;;;;;;;;16.95;54.58;101005.13;6442124;23;20024;-82
2022/05/11 07:12:17;;;;;;;4.53;2.08;;;;;;;16.95;54.85;101000.75;6468088;23;19912;-82
2022/05/11 07:13:38;;;;;;;5.05;2.28;;;;;;;17.05;54.84;100997.75;6468772;23;20012;-84
2022/05/11 07:16:10;;;;;;;5.93;2.63;;;;;;;17.12;54.74;101001.91;6440444;23;20087;-81
2022/05/11 07:18:42;;;;;;;8.17;2.10;;;;;;;17.10;54.42;100996.69;6467708;23;19996;-82
2022/05/11 07:21:14;;;;;;;4.37;2.37;;;;;;;17.17;54.21;100997.31;6467726;23;20004;-82
2022/05/11 07:23:45;;;;;;;10.05;2.85;;;;;;;17.28;54.01;100987.22;6440107;23;20267;-82
2022/05/11 07:26:16;;;;;;;8.37;3.03;;;;;;;17.40;53.87;100985.91;6468125;23;20330;-82
2022/05/11 07:28:48;;;;;;;8.73;2.87;;;;;;;17.56;53.87;100990.59;6466584;23;20019;-83
2022/05/11 07:31:19;;;;;;;8.17;2.43;;;;;;;17.75;52.54;100998.66;6466658;23;20012;-84
2022/05/11 07:33:51;;;;;;;7.70;2.77;;;;;;;17.61;52.18;100986.00;6469464;23;20135;-84
2022/05/11 07:36:24;;;;;;;8.17;2.50;;;;;;;17.57;52.39;100994.97;6468566;23;20043;-84
2022/05/11 07:38:55;;;;;;;6.53;2.95;;;;;;;17.55;51.82;100979.19;6470252;23;20009;-86
2022/05/11 07:41:27;;;;;;;7.80;2.47;;;;;;;17.57;52.22;100987.06;6470073;23;20009;-86
2022/05/11 07:43:58;;;;;;;7.37;2.83;;;;;;;17.59;50.38;101003.66;6471029;23;20009;-85
2022/05/11 07:46:34;;;;;;;6.27;2.20;;;;;;;17.57;50.10;100985.25;6469095;23;20439;-82
2022/05/11 07:49:06;;;;;;;11.63;2.53;;;;;;;17.63;50.45;101000.84;6468172;23;20087;-82
2022/05/11 07:51:37;;;;;;;9.95;2.80;;;;;;;17.41;50.42;100998.16;6444536;23;20047;-85
2022/05/11 07:54:09;;;;;;;6.22;2.40;;;;;;;17.43;50.54;101000.75;6447284;23;20021;-84
2022/05/11 08:02:27;;;;;;;6.15;2.53;;;;;;;17.48;50.14;101001.44;6469162;23;20017;-85
2022/05/11 08:05:01;;;;;;;9.07;2.47;;;;;;;17.87;50.11;101003.44;6470985;23;20418;-81
2022/05/11 08:07:41;;;;;;;10.25;2.40;;;;;;;17.97;49.61;100999.53;6470771;23;20082;-83
2022/05/11 08:10:24;;;;;;;9.70;2.35;;;;;;;17.84;49.38;101020.25;6472711;23;20005;-83
2022/05/11 08:12:56;;;;;;;;;;;;;;;18.04;49.59;101006.28;6474957;23;20108;-85
2022/05/11 08:15:32;;;;;;;6.13;2.65;;;;;;;18.14;49.34;101005.91;6472252;23;19911;-85
2022/05/11 08:18:04;;;;;;;12.95;2.75;;;;;;;18.29;48.71;101001.78;6470614;23;20007;-84
2022/05/11 08:20:43;;;;;;;9.63;3.63;;;;;;;18.43;48.75;100999.41;6470915;23;20005;-82
2022/05/11 08:23:15;;;;;;;10.32;3.00;;;;;;;18.58;48.08;101003.22;6470130;23;20020;-84
2022/05/11 08:25:51;;;;;;;7.90;2.20;;;;;;;18.49;48.18;100999.16;6469337;23;20012;-83
2022/05/11 08:28:25;;;;;;;6.57;2.60;;;;;;;18.74;48.32;100995.44;6469237;23;20054;-81
2022/05/11 08:33:47;;;;;;;9.10;2.42;;;;;;;18.72;47.57;100992.91;6468733;23;20024;-83
2022/05/11 08:36:24;;;;;;;10.15;3.03;;;;;;;18.57;47.95;100989.13;6469862;23;20008;-83
2022/05/11 08:38:58;;;;;;;12.57;3.20;;;;;;;18.76;47.28;100993.63;6471803;23;20046;-84
2022/05/11 08:41:40;;;;;;;7.68;2.45;;;;;;;18.86;47.41;101002.03;6469860;23;20008;-85
2022/05/11 08:44:21;;;;;;;12.52;3.33;;;;;;;18.75;47.56;100990.09;6471421;23;20012;-85
2022/05/11 08:47:13;;;;;;;10.73;3.72;;;;;;;18.71;47.65;101001.75;6469948;23;20012;-82
2022/05/11 08:50:06;;;;;;;11.32;2.80;;;;;;;18.51;48.40;100991.19;6470839;23;20046;-83
2022/05/11 08:52:40;;;;;;;9.20;2.88;;;;;;;18.59;49.07;100986.44;6474717;23;20399;-84
2022/05/11 08:55:15;;;;;;;7.40;3.15;;;;;;;18.91;48.22;100987.69;6470482;23;20012;-86
2022/05/11 08:57:50;;;;;;;12.57;4.18;;;;;;;18.87;47.96;100998.44;6471361;23;20001;-85
2022/05/11 09:00:23;;;;;;;8.15;3.00;;;;;;;19.08;47.08;100980.81;6444296;23;20008;-85
2022/05/11 09:03:05;;;;;;;13.82;3.47;;;;;;;18.92;47.43;100983.28;6471337;23;20009;-85
2022/05/11 09:05:36;;;;;;;7.70;2.38;;;;;;;18.86;48.09;100981.75;6472470;23;20496;-87
2022/05/11 09:08:11;;;;;;;9.87;3.00;;;;;;;19.08;47.23;100988.75;6471855;23;20087;-85
2022/05/11 09:10:44;;;;;;;7.68;3.00;;;;;;;19.03;47.37;100974.84;6444728;23;20019;-84
2022/05/11 09:13:16;;;;;;;10.05;3.33;;;;;;;18.92;47.57;100978.84;6445273;23;20011;-85
2022/05/11 09:15:53;;;;;;;12.43;3.57;;;;;;;19.65;47.19;100986.94;6472710;23;20001;-84
2022/05/11 09:18:31;;;;;;;20.17;3.90;;;;;;;19.56;46.33;100965.38;6471356;23;20001;-82
2022/05/11 09:21:29;;;;;;;7.88;3.08;;;;;;;19.87;45.31;100972.72;6471221;23;20091;-84
2022/05/11 09:24:26;;;;;;;7.30;3.05;;;;;;;19.96;45.63;100964.31;6470881;23;20012;-85
2022/05/11 09:27:08;;;;;;;10.32;3.25;;;;;;;19.65;45.90;100963.13;6468998;23;20008;-83
2022/05/11 09:29:45;;;;;;;12.18;3.38;;;;;;;19.75;46.13;100968.84;6444298;23;20001;-84
2022/05/11 09:32:45;;;;;;;9.23;3.45;;;;;;;19.26;47.04;100966.75;6470769;23;20004;-84
2022/05/11 09:35:25;;;;;;;8.55;3.40;;;;;;;19.53;46.59;100976.09;6468811;23;20001;-83
2022/05/11 09:38:27;;;;;;;8.98;3.65;;;;;;;20.22;45.90;100962.16;6467049;23;20035;-82
2022/05/11 09:41:21;;;;;;;9.63;3.38;;;;;;;20.43;44.45;100969.97;6469108;23;20001;-79
2022/05/11 09:43:58;;;;;;;10.75;3.22;;;;;;;20.86;44.60;100959.81;6487141;23;20208;-83
2022/05/11 09:46:34;;;;;;;8.80;3.53;;;;;;;21.87;41.92;100950.72;6492913;23;19988;-84
2022/05/11 09:49:35;;;;;;;13.43;3.58;;;;;;;21.60;42.49;100950.50;6491550;23;19989;-81
2022/05/11 09:52:08;;;;;;;12.27;3.40;;;;;;;21.24;42.21;100951.59;6452465;23;20457;-82
2022/05/11 09:54:46;;;;;;;11.70;2.90;;;;;;;22.68;40.11;100945.06;6469406;23;20084;-84
2022/05/11 09:57:26;;;;;;;13.07;3.00;;;;;;;22.56;39.80;100952.00;6470960;23;20425;-84
2022/05/11 10:00:38;;;;;;;14.43;3.15;;;;;;;22.90;38.77;100951.75;6469877;23;20436;-84
2022/05/11 10:03:20;;;;;;;9.23;3.20;;;;;;;22.87;38.72;100955.44;6292035;23;20018;-82
2022/05/11 10:05:52;;;;;;;8.93;3.17;;;;;;;23.32;37.66;100957.16;6313343;23;20374;-84
2022/05/11 10:08:31;;;;;;;11.07;4.00;;;;;;;21.81;40.69;100957.22;6313207;23;20007;-83
2022/05/11 10:11:16;;;;;;;8.25;2.95;;;;;;;22.42;40.25;100954.63;6314749;23;20073;-84
2022/05/11 10:23:03;;;;;;;7.25;3.10;;;;;;;21.83;41.12;100950.06;6311548;23;20015;-83
2022/05/11 10:25:49;;;;;;;9.15;3.40;;;;;;;23.94;38.07;100946.91;6311815;23;20055;-83
2022/05/11 10:28:49;;;;;;;6.35;3.33;;;;;;;24.20;36.80;100938.97;6312644;23;20086;-81
2022/05/11 10:32:05;;;;;;;7.20;2.58;;;;;;;25.01;35.03;100942.31;6291886;23;20046;-82
2022/05/11 10:34:56;;;;;;;6.28;3.28;;;;;;;23.99;35.99;100944.78;6313951;23;20015;-81
2022/05/11 10:37:56;;;;;;;14.43;3.35;;;;;;;23.63;38.02;100937.38;6315814;23;20126;-83
2022/05/11 10:40:46;;;;;;;12.13;3.22;;;;;;;23.39;37.47;100923.88;6460195;23;20064;-83
2022/05/11 10:44:06;;;;;;;6.80;2.90;;;;;;;23.75;36.84;100933.09;6475268;23;20630;-83
2022/05/11 10:47:04;;;;;;;9.35;3.35;;;;;;;24.39;35.71;100912.78;6477439;23;20016;-83
2022/05/11 10:50:03;;;;;;;9.52;2.90;;;;;;;23.93;35.90;100931.88;6476599;23;20013;-82
2022/05/11 10:56:34;;;;;;;10.77;2.80;;;;;;;25.92;32.90;100923.22;6472392;23;20100;-85
2022/05/11 10:59:26;;;;;;;9.63;3.20;;;;;;;26.34;32.27;100922.72;6315986;23;20019;-85
2022/05/11 11:02:29;;;;;;;9.35;3.17;;;;;;;25.67;33.01;100908.19;6291079;23;20014;-84
2022/05/11 11:05:25;;;;;;;10.63;3.45;;;;;;;24.77;34.06;100929.75;6314519;23;20022;-83
2022/05/11 11:08:22;;;;;;;14.52;3.63;;;;;;;25.99;33.22;100911.13;6318201;23;20097;-84
2022/05/11 11:11:08;;;;;;;7.32;2.58;;;;;;;26.73;31.48;100910.78;6327511;23;20038;-83
2022/05/11 11:14:02;;;;;;;11.43;3.13;;;;;;;27.20;30.33;100897.25;6328094;23;20010;-82
2022/05/11 11:16:47;;;;;;;7.57;2.95;;;;;;;26.29;30.48;100899.06;6298484;23;20014;-84
2022/05/11 11:19:19;;;;;;;10.10;3.45;;;;;;;27.39;29.27;100901.97;6328173;23;20010;-85
2022/05/11 11:21:51;;;;;;;;;;;;;;;28.12;28.60;100898.63;6324547;23;20030;-83
2022/05/11 11:24:23;;;;;;;10.82;3.10;;;;;;;27.26;29.83;100894.06;6320886;23;19913;-83
2022/05/11 11:27:03;;;;;;;7.35;3.22;;;;;;;28.49;29.01;100906.19;6315080;23;20011;-85
2022/05/11 11:29:36;;;;;;;8.43;3.03;;;;;;;29.42;27.00;100888.19;6290009;23;20413;-85
2022/05/11 11:32:15;;;;;;;8.57;3.28;;;;;;;29.34;27.08;100888.88;6312229;23;20011;-85
2022/05/11 11:35:08;;;;;;;9.82;3.47;;;;;;;28.58;27.09;100900.06;6352025;23;20067;-82
2022/05/11 11:37:43;;;;;;;10.65;2.60;;;;;;;27.35;28.55;100891.66;6469375;23;20067;-85
2022/05/11 11:40:23;;;;;;;7.15;2.42;;;;;;;28.30;28.39;100874.75;6470662;23;20567;-85
2022/05/11 11:42:55;;;;;;;7.72;2.90;;;;;;;28.84;26.78;100884.34;6446872;23;20004;-84
2022/05/11 11:45:58;;;;;;;;;;;;;;;30.23;25.64;100870.88;6469716;23;20322;-86
2022/05/11 11:48:40;;;;;;;8.13;2.53;;;;;;;28.98;26.74;100866.16;6312167;23;19937;-84
2022/05/11 11:52:10;;;;;;;7.43;3.08;;;;;;;29.05;26.99;100867.31;6312497;23;20010;-84
2022/05/11 11:54:50;;;;;;;9.05;2.70;;;;;;;27.99;27.14;100859.50;6312601;23;20069;-82
2022/05/11 11:57:24;;;;;;;9.05;2.70;;;;;;;27.00;28.25;100869.44;6311935;23;20065;-85
2022/05/11 12:00:00;;;;;;;7.68;3.10;;;;;;;27.46;27.62;100864.84;6314195;23;20014;-81
2022/05/11 12:02:40;;;;;;;8.68;2.80;;;;;;;28.29;27.71;100867.69;6313788;23;20006;-85
2022/05/11 12:15:01;;;;;;;12.40;2.72;;;;;;;29.39;26.13;100873.19;6312649;23;20021;-86
2022/05/11 12:17:41;;;;;;;10.45;3.08;;;;;;;29.89;25.51;100844.50;6312749;23;20018;-83
2022/05/11 12:20:20;;;;;;;12.60;4.45;;;;;;;30.83;24.61;100847.16;6310320;23;20046;-84
2022/05/11 12:22:57;;;;;;;12.10;3.25;;;;;;;28.97;25.93;100834.97;6313860;23;20417;-84
2022/05/11 12:25:36;;;;;;;10.85;3.38;;;;;;;27.48;28.16;100838.78;6469676;23;20024;-84
2022/05/11 12:28:30;;;;;;;9.45;3.20;;;;;;;27.78;28.41;100843.38;6467264;23;20008;-83
2022/05/11 12:31:03;;;;;;;6.15;2.63;;;;;;;28.04;27.16;100826.94;6469920;23;20481;-84
2022/05/11 12:33:53;;;;;;;11.02;3.47;;;;;;;28.81;26.06;100812.19;6468654;23;20016;-85
2022/05/11 12:36:55;;;;;;;10.13;3.10;;;;;;;29.22;26.16;100828.22;6441054;23;20009;-83
2022/05/11 12:39:38;;;;;;;10.02;2.80;;;;;;;28.66;26.99;100825.16;6441236;23;20366;-83
2022/05/11 12:42:12;;;;;;;10.38;3.50;;;;;;;27.62;27.68;100838.47;6441504;23;20078;-84
2022/05/11 12:44:55;;;;;;;10.75;3.40;;;;;;;28.59;27.01;100826.66;6466965;23;20028;-83
2022/05/11 12:48:00;;;;;;;;;;;;;;;30.98;25.27;100831.38;6441899;23;20013;-83
2022/05/11 12:50:47;;;;;;;10.57;2.70;;;;;;;29.68;25.43;100824.00;6468334;23;19904;-84
2022/05/11 12:53:22;;;;;;;12.43;3.10;;;;;;;29.64;26.76;100817.19;6443195;23;20008;-86
2022/05/11 12:56:52;;;;;;;14.38;4.35;;;;;;;30.77;24.79;100830.75;6487481;23;20036;-84
2022/05/11 13:00:17;;;;;;;11.50;3.30;;;;;;;30.50;24.91;100813.63;6341865;23;20038;-86